Portada
METAR-TAF:

METAR-TAF

Aeroports :

Pittsburg, Kansas, Estats Units d'Amèrica

latitud: 37-26-58N, longitud: 094-43-52W, altitud: 290 m

Observació

L'informe es va fer fa 19 minuts, a les 12:55 UTC
Vent 3 kt del Nord
Temperatura 6°C
Humitat 75%
Pressió 1013 hPa
Visibilitat: 16.1 km
Cel clar

METAR: KPTS 191255Z AUTO 36003KT 10SM CLR 06/02 A2991 RMK AO2 T00590022

Hora: 07:14 (13:14 UTC)


TAF: manca

Observacions i pronòstics meteorològics de més de 4000 aeroports (METAR i TAF).

Les estacions disponibles són els punts grocs i vermells al mapa.

Posi el ratolí al punt desitjat per veure el nom de l'estació.

Feu clic per veure les observacions i els pronòstics meteorològics.

Per canviar el mapa: feu clic els botons verds amb una creu de color negre per apropar; al botó verd amb un guió per allunyar la imatge; o en les fletxes verdes per a mapes adjacents.


METAR-TAF: